Time;durP1;ratioP1;P1;durP2;ratioP2;P2;SDS_P1;SDS_P2;PMS_P1;PMS_P2;Temp;Humidity;BMP_temperature;BMP_pressure;BME280_temperature;BME280_humidity;BME280_pressure;Samples;Min_cycle;Max_cycle;Signal;HPM_P1;HPM_P2
2021/11/16 00:02:18;;;;;;;10.00;5.35;;;;;;;0.58;75.66;142416.70;1834867;77;22136;-62
2021/11/16 00:05:14;;;;;;;10.08;6.12;;;;;;;0.51;75.53;142399.33;1819202;77;27978;-62
2021/11/16 00:08:09;;;;;;;9.63;5.05;;;;;;;0.55;75.56;142409.25;1853552;77;22574;-60
2021/11/16 00:10:45;;;;;;;9.60;5.80;;;;;;;0.51;75.71;142399.33;1837818;77;28001;-62
2021/11/16 00:13:46;;;;;;;8.20;5.50;;;;;;;0.56;75.72;142411.77;1853500;77;22199;-59
2021/11/16 00:16:41;;;;;;;8.63;5.65;;;;;;;0.53;75.84;142404.27;1834982;77;22160;-65
2021/11/16 00:19:16;;;;;;;10.30;5.62;;;;;;;0.52;75.95;142401.80;1835036;77;22149;-62
2021/11/16 00:22:17;;;;;;;9.48;5.47;;;;;;;0.60;75.76;142421.69;1834886;77;22180;-61
2021/11/16 00:27:55;;;;;;;11.95;6.17;;;;;;;0.66;74.92;142435.36;1834875;77;22176;-60
2021/11/16 00:30:50;;;;;;;13.48;6.62;;;;;;;0.61;75.23;142424.20;1834991;77;22140;-61
2021/11/16 00:33:27;;;;;;;12.28;6.03;;;;;;;0.61;75.25;142424.20;1835040;77;20349;-62
2021/11/16 00:36:28;;;;;;;15.85;6.78;;;;;;;0.58;75.37;142415.47;1834230;77;22132;-62
2021/11/16 00:39:04;;;;;;;17.73;6.35;;;;;;;0.56;75.32;142411.77;1853572;77;22119;-60
2021/11/16 00:41:58;;;;;;;16.67;6.83;;;;;;;0.55;75.45;142409.25;1834990;77;22128;-61
2021/11/16 00:44:34;;;;;;;13.03;6.92;;;;;;;0.50;75.75;142395.58;1834818;77;22143;-63
2021/11/16 00:47:10;;;;;;;14.95;7.55;;;;;;;0.54;75.79;142405.55;1819346;77;38707;-61
2021/11/16 00:49:46;;;;;;;15.18;7.62;;;;;;;0.62;75.59;142426.67;1835023;77;22315;-64
2021/11/16 00:52:47;;;;;;;16.40;7.17;;;;;;;0.61;75.41;142424.20;1853501;77;22187;-60
2021/11/16 00:55:41;;;;;;;17.60;7.00;;;;;;;0.62;75.47;142426.67;1853539;77;22143;-62
2021/11/16 00:58:18;;;;;;;21.77;7.47;;;;;;;0.56;75.43;142411.77;1834777;77;22167;-65
2021/11/16 01:00:54;;;;;;;18.60;8.40;;;;;;;0.56;75.45;142411.77;1835028;77;22132;-62
2021/11/16 01:03:29;;;;;;;18.62;8.03;;;;;;;0.61;75.47;142422.92;1834994;77;22132;-60
2021/11/16 01:06:06;;;;;;;13.62;7.47;;;;;;;0.63;75.41;142427.91;1834791;77;22598;-63
2021/11/16 01:09:06;;;;;;;17.77;9.93;;;;;;;0.59;75.55;142419.22;1834112;77;22142;-61
2021/11/16 01:11:43;;;;;;;14.00;7.85;;;;;;;0.51;75.77;142398.05;1834800;77;22279;-62
2021/11/16 01:14:18;;;;;;;17.67;8.83;;;;;;;0.46;76.09;142386.89;1853578;77;22249;-61
2021/11/16 01:17:13;;;;;;;30.75;9.10;;;;;;;0.42;76.17;142376.94;1853470;77;22570;-64
2021/11/16 01:19:49;;;;;;;16.82;8.83;;;;;;;0.34;75.72;142357.05;1835004;77;22579;-58
2021/11/16 01:22:24;;;;;;;13.80;8.00;;;;;;;0.35;75.83;142359.52;1835026;77;22547;-64
2021/11/16 01:25:18;;;;;;;13.53;8.48;;;;;;;0.40;75.92;142373.19;1853481;77;22550;-58
2021/11/16 01:27:59;;;;;;;13.80;7.53;;;;;;;0.39;75.54;142370.72;1800790;79;22164;-59
2021/11/16 01:30:32;;;;;;;10.65;7.20;;;;;;;0.29;75.51;142344.61;1853552;77;22160;-60
2021/11/16 01:33:28;;;;;;;12.58;7.10;;;;;;;0.32;75.72;142353.30;1834796;77;22156;-60
2021/11/16 01:36:04;;;;;;;13.22;7.45;;;;;;;0.33;75.71;142355.81;1835038;77;22551;-62
2021/11/16 01:38:45;;;;;;;9.35;6.50;;;;;;;0.33;75.80;142355.81;1853543;77;22192;-63
2021/11/16 01:41:22;;;;;;;11.28;6.87;;;;;;;0.34;75.93;142358.28;1848196;78;22212;-60
2021/11/16 01:44:01;;;;;;;11.20;7.47;;;;;;;0.41;75.56;142375.69;1834848;77;22147;-63
2021/11/16 01:46:56;;;;;;;9.98;6.10;;;;;;;0.31;75.17;142350.83;1834970;77;22164;-59
2021/11/16 01:49:31;;;;;;;12.15;5.85;;;;;;;0.21;75.50;142327.20;1853616;77;22128;-66
2021/11/16 01:52:07;;;;;;;9.13;5.58;;;;;;;0.14;75.87;142309.78;1835041;77;22136;-60
2021/11/16 01:55:03;;;;;;;7.92;5.62;;;;;;;0.11;76.06;142302.34;1835063;77;22128;-59
2021/11/16 01:57:38;;;;;;;10.60;6.15;;;;;;;0.17;75.89;142317.23;1835010;77;22547;-63
2021/11/16 02:00:19;;;;;;;9.45;6.40;;;;;;;0.15;75.85;142312.30;1819459;77;27985;-61
2021/11/16 02:03:14;;;;;;;10.45;6.15;;;;;;;0.13;75.68;142307.31;1834983;77;22160;-61
2021/11/16 02:06:23;;;;;;;10.63;6.60;;;;;;;0.03;75.54;142281.22;1853843;77;22212;-61
2021/11/16 02:09:01;;;;;;;8.50;6.25;;;;;;;0.02;75.78;142279.94;1835007;77;22125;-62
2021/11/16 02:11:55;;;;;;;8.98;6.03;;;;;;;0.04;75.56;142283.69;1834944;77;22148;-62
2021/11/16 02:14:49;;;;;;;15.65;6.92;;;;;;;0.01;75.43;142277.48;1835091;77;22136;-61
2021/11/16 02:17:24;;;;;;;10.15;6.30;;;;;;;0.00;75.75;142275.02;1853477;77;22127;-60
2021/11/16 02:19:59;;;;;;;10.80;6.80;;;;;;;0.07;75.80;142292.37;1853573;77;22123;-63
2021/11/16 02:22:40;;;;;;;9.50;5.80;;;;;;;0.20;75.73;142324.73;1853552;77;22151;-65
2021/11/16 02:25:15;;;;;;;11.65;7.12;;;;;;;0.35;75.30;142359.52;1834993;77;22124;-62
2021/11/16 02:27:50;;;;;;;9.80;7.03;;;;;;;0.39;74.97;142369.47;1853563;77;22135;-60
2021/11/16 02:30:47;;;;;;;9.58;6.72;;;;;;;0.40;74.75;142371.95;1835025;77;22554;-63
2021/11/16 02:33:42;;;;;;;10.55;7.05;;;;;;;0.36;74.84;142363.27;1853510;77;22123;-63
2021/11/16 02:36:20;;;;;;;7.75;5.83;;;;;;;0.43;74.83;142380.67;1834996;77;22148;-60
2021/11/16 02:39:16;;;;;;;10.50;6.87;;;;;;;0.51;74.33;142398.05;1835073;77;22128;-64
2021/11/16 02:42:10;;;;;;;9.58;6.87;;;;;;;0.47;74.68;142388.13;1835001;77;22121;-64
2021/11/16 02:44:46;;;;;;;12.50;7.20;;;;;;;0.52;74.64;142400.56;1835017;77;22133;-61
2021/11/16 02:47:21;;;;;;;10.72;6.62;;;;;;;0.54;74.38;142406.78;1853563;77;22160;-59
2021/11/16 02:50:05;;;;;;;11.25;6.42;;;;;;;0.45;74.47;142384.38;1853554;77;22128;-65
2021/11/16 02:52:58;;;;;;;9.78;7.00;;;;;;;0.42;74.54;142376.94;1837930;77;28093;-64
2021/11/16 02:55:43;;;;;;;10.35;7.15;;;;;;;0.47;74.51;142388.13;1853558;77;22206;-65
2021/11/16 02:58:39;;;;;;;10.30;7.15;;;;;;;0.46;74.34;142386.89;1843470;77;22184;-65
2021/11/16 03:01:34;;;;;;;11.30;7.33;;;;;;;0.46;74.66;142385.61;1834998;77;22136;-63
2021/11/16 03:04:33;;;;;;;11.65;7.03;;;;;;;0.51;74.38;142399.33;1853505;77;22179;-61
2021/11/16 03:07:08;;;;;;;9.60;6.33;;;;;;;0.51;74.21;142399.33;1834970;77;22132;-61
2021/11/16 03:09:51;;;;;;;10.80;6.75;;;;;;;0.52;74.07;142401.80;1835085;77;22565;-63
2021/11/16 03:12:29;;;;;;;10.75;7.10;;;;;;;0.54;74.01;142406.78;1835060;77;22124;-63
2021/11/16 03:15:24;;;;;;;10.48;6.58;;;;;;;0.48;73.88;142391.83;1834990;77;22226;-63
2021/11/16 03:18:00;;;;;;;9.93;6.62;;;;;;;0.38;74.00;142368.25;1835006;77;22128;-61
2021/11/16 03:20:35;;;;;;;10.93;6.60;;;;;;;0.17;74.70;142317.23;1835152;77;22128;-63
2021/11/16 03:23:18;;;;;;;10.93;7.03;;;;;;;0.11;75.28;142301.11;1834237;77;22160;-59
2021/11/16 03:26:14;;;;;;;10.45;6.75;;;;;;;0.08;75.52;142294.89;1834881;77;22153;-61
2021/11/16 03:29:12;;;;;;;10.30;6.90;;;;;;;0.03;75.79;142282.47;1819206;77;28045;-63
2021/11/16 03:31:50;;;;;;;10.82;7.30;;;;;;;0.10;75.76;142299.88;1853538;77;22180;-61
2021/11/16 03:34:29;;;;;;;9.80;7.08;;;;;;;0.18;75.63;142319.75;1834976;77;22125;-60
2021/11/16 03:37:26;;;;;;;10.28;7.08;;;;;;;0.28;75.25;142342.09;1819171;77;38328;-60
2021/11/16 03:40:22;;;;;;;10.40;7.53;;;;;;;0.38;74.59;142366.97;1837777;77;27986;-61
2021/11/16 03:43:06;;;;;;;9.48;6.90;;;;;;;0.27;74.73;142339.63;1834208;77;22163;-59
2021/11/16 03:45:41;;;;;;;12.00;7.45;;;;;;;0.13;75.21;142307.31;1853532;77;22577;-62
2021/11/16 03:48:26;;;;;;;9.60;6.92;;;;;;;0.18;75.12;142318.52;1853841;77;22607;-60
2021/11/16 03:51:21;;;;;;;10.28;7.00;;;;;;;0.08;75.31;142294.89;1853717;77;22124;-64
2021/11/16 03:54:22;;;;;;;10.03;6.70;;;;;;;-0.03;75.80;142267.52;1834141;77;22164;-60
2021/11/16 03:57:16;;;;;;;10.80;7.33;;;;;;;0.03;76.04;142282.47;1834937;77;22177;-60
2021/11/16 03:59:51;;;;;;;12.73;8.18;;;;;;;0.16;75.93;142313.53;1853566;77;22546;-63
2021/11/16 04:02:32;;;;;;;16.48;9.03;;;;;;;0.31;75.71;142349.59;1853557;77;22172;-63
2021/11/16 04:05:10;;;;;;;10.78;8.08;;;;;;;0.44;75.47;142381.91;1834770;77;22168;-61
2021/11/16 04:07:45;;;;;;;13.35;8.40;;;;;;;0.49;75.10;142394.34;1835050;77;22129;-65
2021/11/16 04:10:23;;;;;;;13.83;8.48;;;;;;;0.43;75.03;142379.41;1853508;77;22156;-64
2021/11/16 04:12:59;;;;;;;13.05;8.35;;;;;;;0.47;74.80;142389.36;1853511;77;22188;-62
2021/11/16 04:15:36;;;;;;;12.47;8.25;;;;;;;0.51;74.42;142398.05;1853590;77;22128;-63
2021/11/16 04:18:11;;;;;;;11.83;7.95;;;;;;;0.50;73.96;142395.58;1834991;77;22137;-63
2021/11/16 04:20:55;;;;;;;11.50;7.95;;;;;;;0.39;73.76;142369.47;1834182;77;22156;-65
2021/11/16 04:23:29;;;;;;;12.53;8.15;;;;;;;0.20;74.28;142324.73;1853569;77;20099;-63
2021/11/16 04:26:12;;;;;;;13.10;8.40;;;;;;;0.14;74.64;142309.78;1853497;77;22640;-65
2021/11/16 04:29:06;;;;;;;13.18;8.03;;;;;;;0.01;74.97;142277.48;1853437;77;22137;-64
2021/11/16 04:31:43;;;;;;;13.88;8.28;;;;;;;0.05;75.22;142286.16;1835000;77;22133;-60
2021/11/16 04:34:18;;;;;;;16.67;9.70;;;;;;;0.08;75.10;142293.66;1835148;77;22578;-62
2021/11/16 04:37:14;;;;;;;15.10;8.68;;;;;;;0.10;75.16;142299.88;1843434;77;22160;-62
2021/11/16 04:39:49;;;;;;;13.13;9.33;;;;;;;0.17;75.18;142317.23;1837847;77;28000;-66
2021/11/16 04:42:44;;;;;;;11.35;8.18;;;;;;;0.34;74.93;142358.28;1835011;77;22156;-61
2021/11/16 04:45:41;;;;;;;11.80;8.53;;;;;;;0.44;74.62;142381.91;1819186;77;27975;-60
2021/11/16 05:03:30;;;;;;;14.20;8.60;;;;;;;-0.08;75.37;142255.09;1853524;77;22123;-59
2021/11/16 05:06:24;;;;;;;14.40;8.48;;;;;;;-0.22;76.07;142222.78;1853539;77;22573;-61
2021/11/16 05:09:19;;;;;;;12.15;8.65;;;;;;;-0.20;76.40;142225.25;1835042;77;22133;-58
2021/11/16 05:12:13;;;;;;;16.12;9.68;;;;;;;-0.15;76.41;142237.69;1853533;77;22156;-62
2021/11/16 05:14:50;;;;;;;15.98;9.18;;;;;;;-0.11;76.19;142248.87;1848196;77;22152;-61
2021/11/16 05:17:48;;;;;;;14.43;8.73;;;;;;;-0.18;76.33;142230.23;1843339;77;22176;-61
2021/11/16 05:20:23;;;;;;;16.57;9.95;;;;;;;-0.20;76.56;142226.53;1853567;77;22128;-62
2021/11/16 05:22:58;;;;;;;18.87;12.15;;;;;;;-0.08;76.60;142255.09;1819332;77;27987;-62
2021/11/16 05:25:34;;;;;;;21.20;10.80;;;;;;;0.12;76.28;142303.56;1853552;77;22550;-62
2021/11/16 05:28:10;;;;;;;26.73;11.97;;;;;;;0.26;75.87;142337.16;1834838;77;22172;-63
2021/11/16 05:30:46;;;;;;;16.25;10.15;;;;;;;0.37;75.40;142364.50;1853516;77;22574;-64
2021/11/16 05:33:24;;;;;;;13.70;9.63;;;;;;;0.43;74.87;142380.67;1835037;77;20210;-61
2021/11/16 05:35:59;;;;;;;14.98;11.10;;;;;;;0.47;74.68;142389.36;1819621;77;28423;-61
2021/11/16 05:38:42;;;;;;;19.90;11.48;;;;;;;0.59;74.36;142419.22;1853570;77;22203;-62
2021/11/16 05:41:37;;;;;;;14.00;8.85;;;;;;;0.49;73.73;142394.34;1834989;77;22531;-60
2021/11/16 05:44:32;;;;;;;12.85;8.85;;;;;;;0.35;74.23;142359.52;1834987;77;22133;-63
2021/11/16 05:47:28;;;;;;;12.40;8.75;;;;;;;0.32;74.32;142353.30;1834833;77;22570;-61
2021/11/16 05:50:22;;;;;;;15.05;9.25;;;;;;;0.34;74.35;142357.05;1853475;77;22230;-62
2021/11/16 05:52:56;;;;;;;14.28;9.98;;;;;;;0.36;74.27;142362.03;1819423;77;27977;-62
2021/11/16 05:55:32;;;;;;;15.45;9.98;;;;;;;0.49;74.16;142393.11;1835057;77;22132;-62
2021/11/16 05:58:06;;;;;;;13.10;9.53;;;;;;;0.57;73.82;142413.00;1834986;77;22156;-60
2021/11/16 06:01:01;;;;;;;14.43;9.33;;;;;;;0.61;73.44;142424.20;1853623;77;22127;-62
2021/11/16 06:03:56;;;;;;;15.48;9.93;;;;;;;0.58;73.44;142416.70;1800702;79;22168;-62
2021/11/16 06:06:32;;;;;;;17.07;11.12;;;;;;;0.56;73.48;142410.48;1819476;77;28003;-61
2021/11/16 06:09:29;;;;;;;19.98;11.78;;;;;;;0.67;73.37;142436.64;1843740;77;22172;-62
2021/11/16 06:12:11;;;;;;;15.93;10.10;;;;;;;0.74;73.14;142455.30;1832606;77;22195;-61
2021/11/16 06:15:06;;;;;;;16.35;10.28;;;;;;;0.75;72.71;142457.75;1820430;77;22203;-61
2021/11/16 06:17:44;;;;;;;13.45;10.03;;;;;;;0.75;72.53;142456.53;1805981;77;28158;-63
2021/11/16 06:20:43;;;;;;;12.68;9.25;;;;;;;0.81;72.45;142472.67;1830935;77;22198;-62
2021/11/16 06:23:43;;;;;;;14.03;9.98;;;;;;;0.75;72.21;142456.53;1830210;77;22647;-61
2021/11/16 06:26:37;;;;;;;12.37;9.03;;;;;;;0.57;72.72;142414.23;1815204;77;22192;-63
2021/11/16 06:29:31;;;;;;;13.62;9.38;;;;;;;0.39;73.14;142369.47;1821956;77;22678;-60
2021/11/16 06:32:08;;;;;;;13.93;9.33;;;;;;;0.26;73.84;142338.39;1820757;77;22187;-61
2021/11/16 06:34:43;;;;;;;13.95;9.25;;;;;;;0.26;74.05;142338.39;1821455;77;22191;-60
2021/11/16 06:37:37;;;;;;;14.53;9.43;;;;;;;0.41;73.97;142374.47;1817498;77;22594;-64
2021/11/16 06:40:12;;;;;;;17.00;11.28;;;;;;;0.52;73.77;142401.80;1830418;77;22530;-62
2021/11/16 06:42:54;;;;;;;21.02;10.55;;;;;;;0.69;73.47;142441.58;1818198;77;22221;-61
2021/11/16 06:45:58;;;;;;;16.95;10.15;;;;;;;0.81;72.94;142471.44;1804771;77;28005;-63
2021/11/16 06:48:52;;;;;;;16.67;9.60;;;;;;;0.86;72.48;142485.11;1818995;77;22180;-64
2021/11/16 06:51:50;;;;;;;15.58;10.55;;;;;;;0.83;72.05;142476.42;1820832;77;22184;-64
2021/11/16 06:54:50;;;;;;;16.07;10.35;;;;;;;0.77;72.18;142461.52;1816780;77;22173;-61
2021/11/16 06:57:33;;;;;;;18.12;10.45;;;;;;;0.77;72.41;142462.75;1817870;77;22188;-63
2021/11/16 07:00:14;;;;;;;19.48;11.88;;;;;;;0.77;72.52;142461.52;1817720;77;22635;-64
2021/11/16 07:02:57;;;;;;;15.75;11.53;;;;;;;0.73;72.69;142451.53;1804803;77;28189;-63
2021/11/16 07:05:33;;;;;;;12.53;10.03;;;;;;;0.84;72.68;142480.17;1835066;77;22156;-65
2021/11/16 07:08:36;;;;;;;18.35;10.93;;;;;;;0.73;72.23;142452.78;1853571;77;22132;-66
2021/11/16 07:11:55;;;;;;;18.57;10.08;;;;;;;0.58;72.87;142415.47;1834070;77;22199;-64
2021/11/16 07:14:37;;;;;;;16.80;10.03;;;;;;;0.54;73.02;142406.78;1834829;77;22157;-65
2021/11/16 07:17:30;;;;;;;19.50;10.98;;;;;;;0.72;72.97;142450.31;1848178;77;22156;-65
2021/11/16 07:20:25;;;;;;;14.83;10.32;;;;;;;0.78;72.54;142465.22;1853484;77;22124;-65
2021/11/16 07:23:00;;;;;;;15.10;10.08;;;;;;;0.91;72.33;142495.08;1834925;77;22128;-64
2021/11/16 07:25:55;;;;;;;14.05;9.70;;;;;;;0.71;72.14;142447.80;1853415;77;22152;-68
2021/11/16 07:28:31;;;;;;;18.90;12.10;;;;;;;0.60;72.71;142420.45;1819179;77;28006;-63
2021/11/16 07:31:13;;;;;;;21.50;14.35;;;;;;;0.76;73.02;142459.00;1834665;77;22158;-66
2021/11/16 07:33:53;;;;;;;25.20;14.40;;;;;;;1.06;72.65;142532.39;1822022;77;22166;-64
2021/11/16 07:36:58;;;;;;;22.17;14.00;;;;;;;1.36;71.83;142604.58;1816319;77;22187;-61
2021/11/16 07:39:51;;;;;;;23.67;14.85;;;;;;;1.60;71.23;142663.06;1823837;77;22139;-63
2021/11/16 07:42:37;;;;;;;22.05;13.20;;;;;;;1.70;70.32;142689.19;1853543;77;22188;-62
2021/11/16 07:45:22;;;;;;;23.38;15.08;;;;;;;1.81;69.96;142715.38;1834787;77;22187;-61
2021/11/16 07:48:23;;;;;;;19.48;11.70;;;;;;;2.03;69.39;142767.64;1853550;77;22147;-62
2021/11/16 07:51:05;;;;;;;17.92;12.25;;;;;;;2.15;68.67;142797.53;1835047;77;22164;-62
2021/11/16 07:53:50;;;;;;;20.25;12.23;;;;;;;2.23;68.12;142817.45;1853791;77;22550;-64
2021/11/16 07:56:51;;;;;;;19.45;13.53;;;;;;;2.33;67.61;142842.36;1834221;77;22196;-63
2021/11/16 07:59:27;;;;;;;20.40;13.05;;;;;;;2.42;66.99;142862.28;1853647;77;22542;-63
2021/11/16 08:02:34;;;;;;;22.87;11.57;;;;;;;2.45;66.59;142869.78;1834143;77;22152;-61
2021/11/16 08:05:29;;;;;;;17.77;11.43;;;;;;;2.52;66.33;142887.19;1853677;77;22160;-61
2021/11/16 08:08:23;;;;;;;15.00;10.48;;;;;;;2.64;65.84;142917.09;1835257;77;22539;-64
2021/11/16 08:13:55;;;;;;;18.50;11.38;;;;;;;2.76;64.92;142947.00;1853543;77;22175;-63
2021/11/16 08:16:32;;;;;;;13.10;8.68;;;;;;;2.95;64.98;142993.14;1835007;77;22137;-61
2021/11/16 08:19:10;;;;;;;15.58;10.78;;;;;;;3.01;64.06;143006.84;1853628;77;22123;-64
2021/11/16 08:22:12;;;;;;;16.77;10.38;;;;;;;2.88;64.65;142974.45;1853564;77;22143;-63
2021/11/16 08:24:48;;;;;;;17.57;12.13;;;;;;;2.91;64.56;142981.92;1834810;77;22167;-62
2021/11/16 08:27:33;;;;;;;22.20;13.98;;;;;;;2.99;63.97;143001.84;1834739;77;22577;-63
2021/11/16 08:30:16;;;;;;;22.85;12.85;;;;;;;2.97;64.24;142998.09;1834891;77;22191;-64
2021/11/16 08:32:58;;;;;;;24.80;14.70;;;;;;;3.10;64.06;143028.00;1834728;77;22639;-63
2021/11/16 08:35:51;;;;;;;19.67;11.40;;;;;;;3.23;63.57;143060.41;1834887;77;22138;-61
2021/11/16 08:38:45;;;;;;;22.40;14.25;;;;;;;3.29;63.41;143074.16;1853555;77;22152;-62
2021/11/16 08:41:31;;;;;;;20.17;13.35;;;;;;;3.36;63.00;143091.56;1835034;77;22124;-63
2021/11/16 08:47:11;;;;;;;19.42;12.95;;;;;;;3.40;62.60;143101.56;1853427;77;22160;-61
2021/11/16 08:50:28;;;;;;;18.48;12.68;;;;;;;3.43;62.82;143109.03;1834861;77;22196;-61
2021/11/16 08:53:28;;;;;;;18.90;12.47;;;;;;;3.59;62.56;143148.95;1834979;77;22191;-61
2021/11/16 08:56:17;;;;;;;17.95;11.85;;;;;;;3.76;62.13;143188.84;1834783;77;22168;-63
2021/11/16 08:58:52;;;;;;;19.20;12.73;;;;;;;3.91;61.74;143226.25;1833899;77;22207;-63
2021/11/16 09:01:28;;;;;;;18.27;12.15;;;;;;;4.05;61.44;143259.97;1834277;77;22164;-63
2021/11/16 09:04:05;;;;;;;15.80;10.28;;;;;;;4.22;60.76;143301.09;1833905;77;22187;-64
2021/11/16 09:07:01;;;;;;;19.05;12.33;;;;;;;4.34;60.48;143331.05;1801771;77;28135;-61
2021/11/16 09:10:10;;;;;;;18.65;12.35;;;;;;;4.44;60.16;143356.00;1819487;77;22180;-63
2021/11/16 09:13:14;;;;;;;22.45;11.85;;;;;;;4.27;59.79;143313.58;1815839;77;22188;-63
2021/11/16 09:16:09;;;;;;;19.45;12.30;;;;;;;4.16;60.05;143286.14;1817019;77;22260;-62
2021/11/16 09:19:03;;;;;;;18.98;10.88;;;;;;;4.23;59.81;143303.63;1818683;77;22535;-62
2021/11/16 09:22:00;;;;;;;19.05;13.08;;;;;;;4.21;59.81;143299.86;1830278;77;22212;-63
2021/11/16 09:24:38;;;;;;;20.85;11.93;;;;;;;4.13;59.76;143279.91;1820337;77;22127;-62
2021/11/16 09:27:34;;;;;;;20.70;12.43;;;;;;;4.03;59.92;143254.95;1820526;77;22163;-63
2021/11/16 09:30:10;;;;;;;22.17;13.48;;;;;;;3.94;60.21;143232.48;1837587;77;22199;-64
2021/11/16 09:33:07;;;;;;;26.45;13.72;;;;;;;4.00;60.30;143247.48;1834827;77;22571;-63
2021/11/16 09:35:58;;;;;;;24.92;13.08;;;;;;;4.10;60.08;143273.67;1834799;77;22164;-64
2021/11/16 09:38:49;;;;;;;22.27;13.38;;;;;;;4.14;59.95;143283.62;1834749;77;22165;-63
2021/11/16 09:41:36;;;;;;;23.27;13.65;;;;;;;4.14;60.00;143282.37;1853309;77;22191;-62
2021/11/16 09:44:33;;;;;;;17.23;11.88;;;;;;;4.08;59.84;143267.44;1834879;77;22156;-62
2021/11/16 09:47:25;;;;;;;28.55;12.85;;;;;;;3.99;59.78;143244.97;1853487;77;22199;-61
2021/11/16 09:50:20;;;;;;;19.25;11.38;;;;;;;3.76;60.06;143188.84;1834620;77;22172;-62
2021/11/16 09:52:59;;;;;;;20.88;11.65;;;;;;;3.72;60.23;143178.89;1834919;77;22125;-62
2021/11/16 09:55:37;;;;;;;19.12;11.80;;;;;;;3.68;60.38;143171.37;1830117;77;22167;-62
2021/11/16 09:58:34;;;;;;;26.80;15.13;;;;;;;3.72;60.31;143178.89;1817154;77;22148;-62
2021/11/16 10:01:26;;;;;;;26.02;15.20;;;;;;;3.76;60.30;143188.84;1809786;77;28104;-64
2021/11/16 10:04:19;;;;;;;24.20;12.50;;;;;;;3.87;60.35;143216.31;1818427;77;22613;-65
2021/11/16 10:07:00;;;;;;;19.15;11.93;;;;;;;4.03;60.13;143256.20;1817099;77;22606;-66
2021/11/16 10:09:41;;;;;;;22.35;12.90;;;;;;;4.13;59.98;143281.14;1825484;77;22217;-68
2021/11/16 10:12:14;;;;;;;23.32;14.35;;;;;;;4.24;59.56;143306.09;1834890;77;22156;-65
2021/11/16 10:15:17;;;;;;;24.07;12.03;;;;;;;4.27;59.40;143313.58;1834148;77;22216;-62
2021/11/16 10:17:54;;;;;;;18.52;12.20;;;;;;;4.17;59.17;143288.63;1790781;79;22287;-63
2021/11/16 10:20:35;;;;;;;20.45;10.88;;;;;;;4.15;59.28;143284.91;1818698;77;22188;-65
2021/11/16 10:23:41;;;;;;;19.05;10.65;;;;;;;4.19;59.17;143293.62;1820495;77;22625;-64
2021/11/16 10:26:34;;;;;;;22.45;12.58;;;;;;;4.33;59.05;143328.58;1819115;77;22143;-64
2021/11/16 10:29:29;;;;;;;19.62;11.70;;;;;;;4.39;58.38;143343.53;1822563;77;22191;-66
2021/11/16 10:32:23;;;;;;;13.98;9.25;;;;;;;4.34;58.53;143331.05;1825701;77;22152;-64
2021/11/16 10:35:26;;;;;;;15.83;10.45;;;;;;;4.25;58.96;143308.56;1853563;77;22183;-62
2021/11/16 10:38:33;;;;;;;15.60;10.05;;;;;;;4.23;58.97;143304.86;1819733;77;22171;-65
2021/11/16 10:41:13;;;;;;;16.62;9.98;;;;;;;4.24;58.86;143307.34;1833112;77;22662;-66
2021/11/16 10:44:12;;;;;;;17.67;11.75;;;;;;;4.26;59.26;143311.09;1794753;79;22164;-63
2021/11/16 10:46:48;;;;;;;18.45;11.03;;;;;;;4.44;59.46;143356.00;1824381;77;22167;-62
2021/11/16 10:49:24;;;;;;;16.70;10.90;;;;;;;4.63;58.25;143402.20;1842894;78;22216;-62
2021/11/16 10:52:27;;;;;;;18.32;11.30;;;;;;;4.66;58.01;143408.44;1834824;77;22116;-64
2021/11/16 10:55:54;;;;;;;16.97;11.10;;;;;;;4.75;57.88;143430.87;1816646;77;22777;-65
2021/11/16 10:58:40;;;;;;;20.05;10.93;;;;;;;4.79;57.54;143440.88;1826059;77;22195;-62
2021/11/16 11:01:29;;;;;;;15.05;10.98;;;;;;;4.87;57.69;143460.84;1826042;77;22168;-64
2021/11/16 11:04:33;;;;;;;18.92;11.00;;;;;;;4.83;57.23;143449.61;1830497;77;22654;-67
2021/11/16 11:07:37;;;;;;;23.22;11.35;;;;;;;4.66;57.25;143408.44;1820229;77;22228;-63
2021/11/16 11:10:47;;;;;;;20.95;11.83;;;;;;;4.27;58.29;143313.58;1821202;77;22167;-64
2021/11/16 11:13:37;;;;;;;20.97;13.65;;;;;;;4.35;58.67;143334.81;1801681;77;38353;-63
2021/11/16 11:16:57;;;;;;;15.50;11.48;;;;;;;4.65;57.86;143407.16;1817414;77;22144;-65
2021/11/16 11:19:36;;;;;;;16.37;11.00;;;;;;;4.76;57.41;143433.41;1820270;77;22258;-63
2021/11/16 11:22:33;;;;;;;18.65;11.20;;;;;;;4.76;57.15;143433.41;1813845;77;22314;-64
2021/11/16 11:25:33;;;;;;;16.02;12.00;;;;;;;4.66;57.21;143408.44;1834896;77;22160;-65
2021/11/16 11:28:29;;;;;;;17.15;11.33;;;;;;;4.77;56.89;143435.88;1834610;77;22242;-63
2021/11/16 11:30:52;;;;;;;21.70;11.90;;;;;;;4.79;56.76;143442.13;1816098;77;22210;-62
2021/11/16 11:33:49;;;;;;;17.42;12.15;;;;;;;4.69;57.10;143417.16;1816212;77;22570;-63
2021/11/16 11:36:26;;;;;;;17.92;12.55;;;;;;;4.84;57.38;143453.36;1816847;77;22144;-63
2021/11/16 11:39:04;;;;;;;17.42;11.63;;;;;;;5.05;56.95;143503.30;1819867;77;22184;-64
2021/11/16 11:41:55;;;;;;;20.15;13.68;;;;;;;5.24;56.41;143550.77;1817878;77;20165;-64
2021/11/16 11:44:39;;;;;;;23.47;13.48;;;;;;;5.41;55.88;143591.94;1819283;77;22144;-63
2021/11/16 11:47:35;;;;;;;17.27;12.90;;;;;;;5.44;55.43;143600.72;1803642;77;22409;-64
2021/11/16 11:50:35;;;;;;;20.82;12.90;;;;;;;5.35;55.13;143578.22;1815985;77;22220;-63
2021/11/16 11:53:29;;;;;;;22.27;13.98;;;;;;;5.28;55.34;143560.72;1836539;77;22279;-63
2021/11/16 11:56:23;;;;;;;28.65;15.53;;;;;;;5.36;54.90;143580.69;1820156;77;22175;-66
2021/11/16 11:59:01;;;;;;;23.25;13.93;;;;;;;5.41;54.77;143593.19;1818441;77;22150;-67
2021/11/16 12:02:00;;;;;;;23.15;14.30;;;;;;;5.38;54.33;143585.70;1818500;77;22152;-67
2021/11/16 12:04:36;;;;;;;25.23;15.55;;;;;;;5.25;55.10;143553.25;1853151;77;22250;-66
2021/11/16 12:07:38;;;;;;;22.22;13.85;;;;;;;5.44;54.80;143599.42;1833562;77;22184;-66
2021/11/16 12:10:13;;;;;;;26.00;14.30;;;;;;;5.48;54.60;143608.19;1853051;77;22159;-66
2021/11/16 12:12:51;;;;;;;26.07;17.48;;;;;;;5.51;54.51;143615.69;1819217;77;28024;-66
2021/11/16 12:16:24;;;;;;;27.35;15.18;;;;;;;5.57;54.29;143631.94;1853451;77;22191;-66
2021/11/16 12:19:09;;;;;;;21.02;14.53;;;;;;;5.60;54.16;143638.19;1833821;77;22235;-67
2021/11/16 12:21:47;;;;;;;19.92;14.70;;;;;;;5.28;54.45;143560.72;1835010;77;22132;-67
2021/11/16 12:24:47;;;;;;;21.48;14.05;;;;;;;5.08;55.25;143512.02;1835088;77;22149;-66
2021/11/16 12:27:46;;;;;;;26.00;16.80;;;;;;;5.22;55.16;143547.00;1834120;77;22152;-65
2021/11/16 12:30:47;;;;;;;26.55;17.82;;;;;;;5.15;55.24;143528.27;1853281;77;22156;-65
2021/11/16 12:33:49;;;;;;;22.40;16.45;;;;;;;5.28;55.14;143560.72;1818514;77;28046;-65
2021/11/16 12:36:48;;;;;;;22.73;14.65;;;;;;;5.53;54.63;143620.69;1834743;77;22266;-66
2021/11/16 12:39:58;;;;;;;23.90;14.28;;;;;;;5.58;54.38;143634.42;1853198;77;22153;-66
2021/11/16 12:43:20;;;;;;;24.75;16.77;;;;;;;5.61;54.02;143640.66;1837714;77;27991;-66
2021/11/16 12:46:00;;;;;;;21.20;15.15;;;;;;;5.71;54.11;143664.41;1853575;77;22164;-66
2021/11/16 12:48:50;;;;;;;27.27;15.70;;;;;;;5.84;53.33;143698.11;1853504;77;22567;-66
2021/11/16 12:51:56;;;;;;;30.60;19.50;;;;;;;5.60;53.63;143639.42;1827632;77;28098;-66
2021/11/16 12:55:00;;;;;;;21.75;15.30;;;;;;;5.54;53.84;143623.16;1834175;77;22172;-66
2021/11/16 12:57:35;;;;;;;26.00;15.63;;;;;;;5.39;53.84;143588.22;1834855;77;22559;-67
2021/11/16 13:00:12;;;;;;;23.70;15.10;;;;;;;5.21;54.36;143543.23;1834856;77;22559;-66
2021/11/16 13:03:07;;;;;;;24.40;17.17;;;;;;;5.28;54.50;143560.72;1832378;77;28041;-67
2021/11/16 13:06:13;;;;;;;23.02;14.73;;;;;;;5.46;54.14;143603.19;1853426;77;22223;-66
2021/11/16 13:08:54;;;;;;;30.12;16.00;;;;;;;5.43;54.07;143598.19;1834068;77;22172;-67
2021/11/16 13:11:47;;;;;;;26.35;15.90;;;;;;;5.31;54.37;143568.20;1834767;77;22152;-67
2021/11/16 13:14:44;;;;;;;26.70;16.75;;;;;;;5.29;54.53;143561.97;1834839;77;22559;-66
2021/11/16 13:17:51;;;;;;;26.70;17.95;;;;;;;5.30;54.54;143565.72;1834881;77;22156;-66
2021/11/16 13:20:59;;;;;;;25.85;15.70;;;;;;;5.32;54.46;143570.73;1853540;77;22610;-66
2021/11/16 13:24:02;;;;;;;33.40;18.40;;;;;;;5.27;54.67;143558.25;1834806;77;22159;-66